sensor_id;sensor_type;location;lat;lon;timestamp;pressure;altitude;pressure_sealevel;temperature;humidity
20696;BME280;10507;52.754;13.040;2023-02-28T00:01:09;102490.00;;;-2.39;100.00
20696;BME280;10507;52.754;13.040;2023-02-28T00:03:37;102467.09;;;-2.46;100.00
20696;BME280;10507;52.754;13.040;2023-02-28T00:06:06;102485.44;;;-2.45;100.00
20696;BME280;10507;52.754;13.040;2023-02-28T00:08:36;102485.34;;;-2.48;100.00
20696;BME280;10507;52.754;13.040;2023-02-28T00:11:08;102474.72;;;-2.53;100.00
20696;BME280;10507;52.754;13.040;2023-02-28T00:13:38;102480.69;;;-2.57;100.00
20696;BME280;10507;52.754;13.040;2023-02-28T00:16:09;102482.38;;;-2.59;100.00
20696;BME280;10507;52.754;13.040;2023-02-28T00:18:38;102518.16;;;-2.58;100.00
20696;BME280;10507;52.754;13.040;2023-02-28T00:21:06;102519.91;;;-2.57;100.00
20696;BME280;10507;52.754;13.040;2023-02-28T00:23:35;102507.34;;;-2.67;100.00
20696;BME280;10507;52.754;13.040;2023-02-28T00:26:03;102515.09;;;-2.70;100.00
20696;BME280;10507;52.754;13.040;2023-02-28T00:28:33;102553.59;;;-2.66;100.00
20696;BME280;10507;52.754;13.040;2023-02-28T00:31:00;102538.53;;;-2.73;100.00
20696;BME280;10507;52.754;13.040;2023-02-28T00:33:28;102557.78;;;-2.71;100.00
20696;BME280;10507;52.754;13.040;2023-02-28T00:36:04;102554.16;;;-2.75;100.00
20696;BME280;10507;52.754;13.040;2023-02-28T00:38:32;102565.47;;;-2.76;100.00
20696;BME280;10507;52.754;13.040;2023-02-28T00:41:00;102555.75;;;-2.78;100.00
20696;BME280;10507;52.754;13.040;2023-02-28T00:43:33;102556.53;;;-2.81;100.00
20696;BME280;10507;52.754;13.040;2023-02-28T00:46:02;102556.38;;;-2.85;100.00
20696;BME280;10507;52.754;13.040;2023-02-28T00:48:31;102558.03;;;-2.87;100.00
20696;BME280;10507;52.754;13.040;2023-02-28T00:50:59;102574.50;;;-2.90;100.00
20696;BME280;10507;52.754;13.040;2023-02-28T00:53:27;102574.28;;;-2.96;100.00
20696;BME280;10507;52.754;13.040;2023-02-28T00:55:55;102589.06;;;-2.97;100.00
20696;BME280;10507;52.754;13.040;2023-02-28T00:58:23;102589.78;;;-3.01;100.00
20696;BME280;10507;52.754;13.040;2023-02-28T01:00:52;102588.84;;;-3.03;100.00
20696;BME280;10507;52.754;13.040;2023-02-28T01:03:21;102605.34;;;-3.04;100.00
20696;BME280;10507;52.754;13.040;2023-02-28T01:05:49;102627.38;;;-2.97;100.00
20696;BME280;10507;52.754;13.040;2023-02-28T01:08:17;102644.09;;;-2.94;100.00
20696;BME280;10507;52.754;13.040;2023-02-28T01:10:45;102617.78;;;-2.98;100.00
20696;BME280;10507;52.754;13.040;2023-02-28T01:13:13;102622.16;;;-2.97;100.00
20696;BME280;10507;52.754;13.040;2023-02-28T01:15:43;102619.47;;;-2.99;100.00
20696;BME280;10507;52.754;13.040;2023-02-28T01:18:14;102609.75;;;-3.03;100.00
20696;BME280;10507;52.754;13.040;2023-02-28T01:20:42;102609.69;;;-3.04;100.00
20696;BME280;10507;52.754;13.040;2023-02-28T01:23:10;102603.38;;;-3.09;100.00
20696;BME280;10507;52.754;13.040;2023-02-28T01:25:38;102576.91;;;-3.20;100.00
20696;BME280;10507;52.754;13.040;2023-02-28T01:28:06;102573.94;;;-3.29;100.00
20696;BME280;10507;52.754;13.040;2023-02-28T01:30:34;102578.13;;;-3.33;100.00
20696;BME280;10507;52.754;13.040;2023-02-28T01:33:02;102587.56;;;-3.37;100.00
20696;BME280;10507;52.754;13.040;2023-02-28T01:35:33;102595.38;;;-3.38;100.00
20696;BME280;10507;52.754;13.040;2023-02-28T01:38:01;102625.25;;;-3.30;100.00
20696;BME280;10507;52.754;13.040;2023-02-28T01:40:46;102647.34;;;-3.22;100.00
20696;BME280;10507;52.754;13.040;2023-02-28T01:43:20;102637.50;;;-3.29;100.00
20696;BME280;10507;52.754;13.040;2023-02-28T01:45:49;102615.41;;;-3.37;100.00
20696;BME280;10507;52.754;13.040;2023-02-28T01:48:18;102611.75;;;-3.42;100.00
20696;BME280;10507;52.754;13.040;2023-02-28T01:50:48;102624.88;;;-3.41;100.00
20696;BME280;10507;52.754;13.040;2023-02-28T01:53:19;102621.16;;;-3.46;100.00
20696;BME280;10507;52.754;13.040;2023-02-28T01:55:51;102652.75;;;-3.40;100.00
20696;BME280;10507;52.754;13.040;2023-02-28T01:58:20;102653.59;;;-3.41;100.00
20696;BME280;10507;52.754;13.040;2023-02-28T02:00:48;102654.41;;;-3.42;100.00
20696;BME280;10507;52.754;13.040;2023-02-28T02:03:18;102690.50;;;-3.31;100.00
20696;BME280;10507;52.754;13.040;2023-02-28T02:05:48;102667.56;;;-3.39;100.00
20696;BME280;10507;52.754;13.040;2023-02-28T02:08:18;102676.16;;;-3.41;100.00
20696;BME280;10507;52.754;13.040;2023-02-28T02:10:49;102669.25;;;-3.41;100.00
20696;BME280;10507;52.754;13.040;2023-02-28T02:13:37;102656.75;;;-3.48;100.00
20696;BME280;10507;52.754;13.040;2023-02-28T02:16:19;102681.28;;;-3.44;100.00
20696;BME280;10507;52.754;13.040;2023-02-28T02:18:53;102683.13;;;-3.42;100.00
20696;BME280;10507;52.754;13.040;2023-02-28T02:24:49;102698.34;;;-3.31;100.00
20696;BME280;10507;52.754;13.040;2023-02-28T02:27:46;102714.38;;;-3.22;100.00
20696;BME280;10507;52.754;13.040;2023-02-28T02:30:35;102693.22;;;-3.28;100.00
20696;BME280;10507;52.754;13.040;2023-02-28T02:33:48;102680.69;;;-3.37;100.00
20696;BME280;10507;52.754;13.040;2023-02-28T02:36:23;102667.19;;;-3.48;100.00
20696;BME280;10507;52.754;13.040;2023-02-28T02:38:57;102658.03;;;-3.59;100.00
20696;BME280;10507;52.754;13.040;2023-02-28T02:41:34;102661.16;;;-3.68;100.00
20696;BME280;10507;52.754;13.040;2023-02-28T02:44:06;102685.63;;;-3.66;100.00
20696;BME280;10507;52.754;13.040;2023-02-28T02:46:39;102699.44;;;-3.68;100.00
20696;BME280;10507;52.754;13.040;2023-02-28T02:49:13;102719.63;;;-3.64;100.00
20696;BME280;10507;52.754;13.040;2023-02-28T02:51:45;102716.91;;;-3.67;100.00
20696;BME280;10507;52.754;13.040;2023-02-28T02:54:16;102698.19;;;-3.78;100.00
20696;BME280;10507;52.754;13.040;2023-02-28T02:56:47;102690.84;;;-3.87;100.00
20696;BME280;10507;52.754;13.040;2023-02-28T02:59:20;102663.41;;;-3.98;100.00
20696;BME280;10507;52.754;13.040;2023-02-28T03:01:53;102675.63;;;-3.97;100.00
20696;BME280;10507;52.754;13.040;2023-02-28T03:04:24;102671.13;;;-4.01;100.00
20696;BME280;10507;52.754;13.040;2023-02-28T03:06:54;102643.75;;;-4.11;100.00
20696;BME280;10507;52.754;13.040;2023-02-28T03:09:22;102693.97;;;-3.95;100.00
20696;BME280;10507;52.754;13.040;2023-02-28T03:11:51;102664.00;;;-4.05;100.00
20696;BME280;10507;52.754;13.040;2023-02-28T03:14:28;102639.28;;;-4.13;100.00
20696;BME280;10507;52.754;13.040;2023-02-28T03:17:18;102615.44;;;-4.23;100.00
20696;BME280;10507;52.754;13.040;2023-02-28T03:19:55;102637.44;;;-4.16;100.00
20696;BME280;10507;52.754;13.040;2023-02-28T03:22:45;102629.44;;;-4.21;100.00
20696;BME280;10507;52.754;13.040;2023-02-28T03:25:26;102696.50;;;-3.97;100.00
20696;BME280;10507;52.754;13.040;2023-02-28T03:28:00;102687.16;;;-3.92;100.00
20696;BME280;10507;52.754;13.040;2023-02-28T03:30:36;102653.75;;;-4.01;100.00
20696;BME280;10507;52.754;13.040;2023-02-28T03:33:10;102647.50;;;-4.04;100.00
20696;BME280;10507;52.754;13.040;2023-02-28T03:35:43;102629.88;;;-4.10;100.00
20696;BME280;10507;52.754;13.040;2023-02-28T03:38:18;102614.84;;;-4.15;100.00
20696;BME280;10507;52.754;13.040;2023-02-28T03:40:51;102620.91;;;-4.16;100.00
20696;BME280;10507;52.754;13.040;2023-02-28T03:43:26;102615.53;;;-4.20;100.00
20696;BME280;10507;52.754;13.040;2023-02-28T03:45:55;102613.59;;;-4.25;100.00
20696;BME280;10507;52.754;13.040;2023-02-28T03:48:29;102620.44;;;-4.27;100.00
20696;BME280;10507;52.754;13.040;2023-02-28T03:50:59;102631.00;;;-4.24;100.00
20696;BME280;10507;52.754;13.040;2023-02-28T03:53:33;102623.06;;;-4.27;100.00
20696;BME280;10507;52.754;13.040;2023-02-28T03:56:06;102636.91;;;-4.28;100.00
20696;BME280;10507;52.754;13.040;2023-02-28T03:58:41;102642.97;;;-4.29;100.00
20696;BME280;10507;52.754;13.040;2023-02-28T04:01:15;102660.59;;;-4.24;100.00
20696;BME280;10507;52.754;13.040;2023-02-28T04:03:46;102685.16;;;-4.19;100.00
20696;BME280;10507;52.754;13.040;2023-02-28T04:06:16;102671.03;;;-4.24;100.00
20696;BME280;10507;52.754;13.040;2023-02-28T04:08:47;102671.91;;;-4.23;100.00
20696;BME280;10507;52.754;13.040;2023-02-28T04:11:19;102674.38;;;-4.26;100.00
20696;BME280;10507;52.754;13.040;2023-02-28T04:13:48;102675.97;;;-4.30;100.00
20696;BME280;10507;52.754;13.040;2023-02-28T04:16:16;102664.50;;;-4.33;100.00
20696;BME280;10507;52.754;13.040;2023-02-28T04:19:00;102661.81;;;-4.35;100.00
20696;BME280;10507;52.754;13.040;2023-02-28T04:21:30;102673.09;;;-4.36;100.00
20696;BME280;10507;52.754;13.040;2023-02-28T04:24:00;102676.75;;;-4.32;100.00
20696;BME280;10507;52.754;13.040;2023-02-28T04:26:29;102663.34;;;-4.40;100.00
20696;BME280;10507;52.754;13.040;2023-02-28T04:28:57;102657.25;;;-4.41;100.00
20696;BME280;10507;52.754;13.040;2023-02-28T04:31:25;102638.59;;;-4.50;100.00
20696;BME280;10507;52.754;13.040;2023-02-28T04:33:54;102637.53;;;-4.55;100.00
20696;BME280;10507;52.754;13.040;2023-02-28T04:36:22;102670.84;;;-4.48;100.00
20696;BME280;10507;52.754;13.040;2023-02-28T04:38:50;102697.25;;;-4.40;100.00
20696;BME280;10507;52.754;13.040;2023-02-28T04:41:20;102674.34;;;-4.47;100.00
20696;BME280;10507;52.754;13.040;2023-02-28T04:43:50;102665.63;;;-4.48;100.00
20696;BME280;10507;52.754;13.040;2023-02-28T04:46:18;102650.75;;;-4.50;100.00
20696;BME280;10507;52.754;13.040;2023-02-28T04:48:46;102638.13;;;-4.61;100.00
20696;BME280;10507;52.754;13.040;2023-02-28T04:51:16;102646.06;;;-4.57;100.00
20696;BME280;10507;52.754;13.040;2023-02-28T04:53:44;102671.59;;;-4.50;100.00
20696;BME280;10507;52.754;13.040;2023-02-28T04:56:14;102689.13;;;-4.46;100.00
20696;BME280;10507;52.754;13.040;2023-02-28T04:58:43;102675.22;;;-4.47;100.00
20696;BME280;10507;52.754;13.040;2023-02-28T05:01:21;102672.41;;;-4.51;100.00
20696;BME280;10507;52.754;13.040;2023-02-28T05:03:50;102660.00;;;-4.57;100.00
20696;BME280;10507;52.754;13.040;2023-02-28T05:06:20;102685.44;;;-4.51;100.00
20696;BME280;10507;52.754;13.040;2023-02-28T05:08:50;102703.84;;;-4.48;100.00
20696;BME280;10507;52.754;13.040;2023-02-28T05:11:20;102710.00;;;-4.46;100.00
20696;BME280;10507;52.754;13.040;2023-02-28T05:13:50;102717.00;;;-4.45;100.00
20696;BME280;10507;52.754;13.040;2023-02-28T05:16:19;102705.81;;;-4.43;100.00
20696;BME280;10507;52.754;13.040;2023-02-28T05:18:47;102718.97;;;-4.40;100.00
20696;BME280;10507;52.754;13.040;2023-02-28T05:21:23;102718.94;;;-4.41;100.00
20696;BME280;10507;52.754;13.040;2023-02-28T05:23:52;102717.28;;;-4.39;100.00
20696;BME280;10507;52.754;13.040;2023-02-28T05:26:20;102735.94;;;-4.30;100.00
20696;BME280;10507;52.754;13.040;2023-02-28T05:28:49;102725.34;;;-4.33;100.00
20696;BME280;10507;52.754;13.040;2023-02-28T05:31:18;102729.97;;;-4.27;100.00
20696;BME280;10507;52.754;13.040;2023-02-28T05:33:46;102737.03;;;-4.25;100.00
20696;BME280;10507;52.754;13.040;2023-02-28T05:36:14;102738.00;;;-4.23;100.00
20696;BME280;10507;52.754;13.040;2023-02-28T05:38:42;102742.56;;;-4.17;100.00
20696;BME280;10507;52.754;13.040;2023-02-28T05:41:10;102752.47;;;-4.10;100.00
20696;BME280;10507;52.754;13.040;2023-02-28T05:43:38;102769.28;;;-4.03;100.00
20696;BME280;10507;52.754;13.040;2023-02-28T05:46:10;102770.38;;;-3.98;100.00
20696;BME280;10507;52.754;13.040;2023-02-28T05:48:40;102812.25;;;-3.76;100.00
20696;BME280;10507;52.754;13.040;2023-02-28T05:51:08;102759.66;;;-3.85;100.00
20696;BME280;10507;52.754;13.040;2023-02-28T05:53:37;102770.38;;;-3.79;100.00
20696;BME280;10507;52.754;13.040;2023-02-28T05:56:05;102758.97;;;-3.81;100.00
20696;BME280;10507;52.754;13.040;2023-02-28T05:58:33;102761.78;;;-3.76;100.00
20696;BME280;10507;52.754;13.040;2023-02-28T06:01:21;102732.72;;;-3.84;100.00
20696;BME280;10507;52.754;13.040;2023-02-28T06:03:50;102719.66;;;-3.84;100.00
20696;BME280;10507;52.754;13.040;2023-02-28T06:06:18;102709.19;;;-3.85;100.00
20696;BME280;10507;52.754;13.040;2023-02-28T06:08:45;102717.22;;;-3.81;100.00
20696;BME280;10507;52.754;13.040;2023-02-28T06:11:13;102720.06;;;-3.74;100.00
20696;BME280;10507;52.754;13.040;2023-02-28T06:13:41;102737.13;;;-3.62;100.00
20696;BME280;10507;52.754;13.040;2023-02-28T06:16:10;102725.03;;;-3.60;100.00
20696;BME280;10507;52.754;13.040;2023-02-28T06:18:40;102728.72;;;-3.55;100.00
20696;BME280;10507;52.754;13.040;2023-02-28T06:21:08;102673.47;;;-3.65;100.00
20696;BME280;10507;52.754;13.040;2023-02-28T06:23:36;102652.28;;;-3.73;100.00
20696;BME280;10507;52.754;13.040;2023-02-28T06:26:04;102679.97;;;-3.56;100.00
20696;BME280;10507;52.754;13.040;2023-02-28T06:28:32;102713.25;;;-3.29;100.00
20696;BME280;10507;52.754;13.040;2023-02-28T06:31:04;102786.72;;;-2.54;100.00
20696;BME280;10507;52.754;13.040;2023-02-28T06:33:32;102792.34;;;-1.72;100.00
20696;BME280;10507;52.754;13.040;2023-02-28T06:36:03;102753.50;;;-1.06;100.00
20696;BME280;10507;52.754;13.040;2023-02-28T06:38:31;102652.69;;;-0.58;100.00
20696;BME280;10507;52.754;13.040;2023-02-28T06:41:00;102605.19;;;-0.01;100.00
20696;BME280;10507;52.754;13.040;2023-02-28T06:43:30;102450.00;;;0.27;99.82
20696;BME280;10507;52.754;13.040;2023-02-28T06:45:59;102320.00;;;0.50;97.95
20696;BME280;10507;52.754;13.040;2023-02-28T06:48:28;102215.41;;;0.82;95.85
20696;BME280;10507;52.754;13.040;2023-02-28T06:51:03;102121.13;;;1.12;94.09
20696;BME280;10507;52.754;13.040;2023-02-28T06:53:31;101972.34;;;1.38;92.07
20696;BME280;10507;52.754;13.040;2023-02-28T06:55:59;101918.31;;;1.83;89.88
20696;BME280;10507;52.754;13.040;2023-02-28T06:58:27;101792.94;;;2.21;87.65
20696;BME280;10507;52.754;13.040;2023-02-28T07:00:55;101605.00;;;2.28;85.93
20696;BME280;10507;52.754;13.040;2023-02-28T07:03:22;101589.19;;;2.34;85.11
20696;BME280;10507;52.754;13.040;2023-02-28T07:05:50;101571.59;;;2.45;84.12
20696;BME280;10507;52.754;13.040;2023-02-28T07:08:19;101387.22;;;2.27;83.22
20696;BME280;10507;52.754;13.040;2023-02-28T07:10:51;101576.84;;;2.67;83.32
20696;BME280;10507;52.754;13.040;2023-02-28T07:13:19;101310.00;;;2.10;82.78
20696;BME280;10507;52.754;13.040;2023-02-28T07:15:53;101314.50;;;1.80;83.41
20696;BME280;10507;52.754;13.040;2023-02-28T07:18:21;101354.03;;;1.48;84.21
20696;BME280;10507;52.754;13.040;2023-02-28T07:20:49;101575.13;;;1.71;84.50
20696;BME280;10507;52.754;13.040;2023-02-28T07:23:17;101581.28;;;1.74;84.53
20696;BME280;10507;52.754;13.040;2023-02-28T07:25:46;101550.56;;;1.81;83.94
20696;BME280;10507;52.754;13.040;2023-02-28T07:28:14;101671.72;;;1.96;84.55
20696;BME280;10507;52.754;13.040;2023-02-28T07:30:42;101606.72;;;1.83;85.16
20696;BME280;10507;52.754;13.040;2023-02-28T07:33:10;101801.69;;;2.17;85.07
20696;BME280;10507;52.754;13.040;2023-02-28T07:35:38;101726.22;;;2.33;84.48
20696;BME280;10507;52.754;13.040;2023-02-28T07:38:07;101706.91;;;2.41;84.33
20696;BME280;10507;52.754;13.040;2023-02-28T07:40:35;101654.19;;;2.35;83.90
20696;BME280;10507;52.754;13.040;2023-02-28T07:43:05;101731.50;;;2.46;84.59
20696;BME280;10507;52.754;13.040;2023-02-28T07:45:33;101592.69;;;2.48;83.89
20696;BME280;10507;52.754;13.040;2023-02-28T07:48:01;101651.56;;;2.44;84.48
20696;BME280;10507;52.754;13.040;2023-02-28T07:50:29;101808.81;;;2.55;84.50
20696;BME280;10507;52.754;13.040;2023-02-28T07:52:57;101641.91;;;2.40;84.11
20696;BME280;10507;52.754;13.040;2023-02-28T07:55:25;101651.53;;;2.46;84.17
20696;BME280;10507;52.754;13.040;2023-02-28T07:57:53;101713.06;;;2.59;84.20
20696;BME280;10507;52.754;13.040;2023-02-28T08:00:23;101717.47;;;2.54;84.73
20696;BME280;10507;52.754;13.040;2023-02-28T08:02:51;101814.13;;;2.82;84.84
20696;BME280;10507;52.754;13.040;2023-02-28T08:05:19;101649.78;;;2.54;84.75
20696;BME280;10507;52.754;13.040;2023-02-28T08:07:48;101562.00;;;1.98;85.54
20696;BME280;10507;52.754;13.040;2023-02-28T08:10:16;101756.06;;;2.13;86.39
20696;BME280;10507;52.754;13.040;2023-02-28T08:12:44;101855.28;;;2.22;86.92
20696;BME280;10507;52.754;13.040;2023-02-28T08:15:12;101864.03;;;2.07;87.71
20696;BME280;10507;52.754;13.040;2023-02-28T08:17:41;101912.34;;;2.12;88.11
20696;BME280;10507;52.754;13.040;2023-02-28T08:20:10;101850.75;;;1.90;88.36
20696;BME280;10507;52.754;13.040;2023-02-28T08:22:38;101963.16;;;1.97;89.49
20696;BME280;10507;52.754;13.040;2023-02-28T08:25:07;102018.56;;;2.10;89.49
20696;BME280;10507;52.754;13.040;2023-02-28T08:27:35;101968.53;;;2.13;88.78
20696;BME280;10507;52.754;13.040;2023-02-28T08:30:04;101951.06;;;2.27;88.11
20696;BME280;10507;52.754;13.040;2023-02-28T08:32:32;101928.25;;;2.32;87.85
20696;BME280;10507;52.754;13.040;2023-02-28T08:35:01;102003.88;;;2.45;88.38
20696;BME280;10507;52.754;13.040;2023-02-28T08:37:30;101987.13;;;2.39;89.20
20696;BME280;10507;52.754;13.040;2023-02-28T08:39:58;101955.53;;;2.48;87.59
20696;BME280;10507;52.754;13.040;2023-02-28T08:42:25;101942.38;;;2.51;87.62
20696;BME280;10507;52.754;13.040;2023-02-28T08:44:53;101967.00;;;2.58;87.98
20696;BME280;10507;52.754;13.040;2023-02-28T08:47:21;101923.09;;;2.66;86.80
20696;BME280;10507;52.754;13.040;2023-02-28T08:49:49;101884.44;;;2.68;87.12
20696;BME280;10507;52.754;13.040;2023-02-28T08:52:18;101954.72;;;2.64;88.11
20696;BME280;10507;52.754;13.040;2023-02-28T08:54:46;102071.72;;;2.82;88.57
20696;BME280;10507;52.754;13.040;2023-02-28T08:57:13;101967.97;;;2.80;87.87
20696;BME280;10507;52.754;13.040;2023-02-28T08:59:41;101956.56;;;2.76;87.83
20696;BME280;10507;52.754;13.040;2023-02-28T09:02:12;101978.50;;;2.75;87.27
20696;BME280;10507;52.754;13.040;2023-02-28T09:04:40;101923.97;;;2.59;88.16
20696;BME280;10507;52.754;13.040;2023-02-28T09:07:08;101967.91;;;2.61;88.63
20696;BME280;10507;52.754;13.040;2023-02-28T09:09:37;101927.47;;;2.64;87.85
20696;BME280;10507;52.754;13.040;2023-02-28T09:12:20;101950.41;;;2.91;86.65
20696;BME280;10507;52.754;13.040;2023-02-28T09:14:48;101847.56;;;3.05;85.68
20696;BME280;10507;52.754;13.040;2023-02-28T09:17:16;101768.41;;;3.08;84.55
20696;BME280;10507;52.754;13.040;2023-02-28T09:19:44;101743.78;;;3.15;84.19
20696;BME280;10507;52.754;13.040;2023-02-28T09:22:12;101749.03;;;3.27;83.72
20696;BME280;10507;52.754;13.040;2023-02-28T09:24:41;101806.19;;;3.45;84.35
20696;BME280;10507;52.754;13.040;2023-02-28T09:27:11;101710.22;;;3.54;81.98
20696;BME280;10507;52.754;13.040;2023-02-28T09:29:39;101550.94;;;3.57;80.97
20696;BME280;10507;52.754;13.040;2023-02-28T09:32:06;101534.13;;;3.65;80.51
20696;BME280;10507;52.754;13.040;2023-02-28T09:34:34;101392.53;;;3.53;79.18
20696;BME280;10507;52.754;13.040;2023-02-28T09:37:03;101412.69;;;3.62;78.33
20696;BME280;10507;52.754;13.040;2023-02-28T09:39:31;101228.66;;;3.70;75.86
20696;BME280;10507;52.754;13.040;2023-02-28T09:42:02;101190.72;;;3.78;75.69
20696;BME280;10507;52.754;13.040;2023-02-28T09:44:35;101013.25;;;3.54;74.44
20696;BME280;10507;52.754;13.040;2023-02-28T09:47:08;101088.06;;;3.54;74.50
20696;BME280;10507;52.754;13.040;2023-02-28T09:49:41;100975.50;;;3.47;73.45
20696;BME280;10507;52.754;13.040;2023-02-28T09:52:12;101045.75;;;3.59;74.11
20696;BME280;10507;52.754;13.040;2023-02-28T09:54:41;100965.59;;;3.63;72.61
20696;BME280;10507;52.754;13.040;2023-02-28T09:57:18;100918.91;;;3.65;72.82
20696;BME280;10507;52.754;13.040;2023-02-28T10:00:10;100714.84;;;3.59;69.64
20696;BME280;10507;52.754;13.040;2023-02-28T10:02:52;100656.53;;;3.71;68.87
20696;BME280;10507;52.754;13.040;2023-02-28T10:05:27;100611.72;;;3.68;68.37
20696;BME280;10507;52.754;13.040;2023-02-28T10:08:05;100608.16;;;3.70;67.85
20696;BME280;10507;52.754;13.040;2023-02-28T10:10:39;100824.22;;;3.92;69.04
20696;BME280;10507;52.754;13.040;2023-02-28T10:13:16;100737.91;;;3.94;68.04
20696;BME280;10507;52.754;13.040;2023-02-28T10:15:46;100658.72;;;3.92;67.50
20696;BME280;10507;52.754;13.040;2023-02-28T10:18:19;100691.91;;;4.03;67.28
20696;BME280;10507;52.754;13.040;2023-02-28T10:20:49;100559.06;;;3.99;65.66
20696;BME280;10507;52.754;13.040;2023-02-28T10:23:21;100455.38;;;3.91;65.99
20696;BME280;10507;52.754;13.040;2023-02-28T10:25:55;100474.09;;;3.82;65.53
20696;BME280;10507;52.754;13.040;2023-02-28T10:28:32;100673.31;;;4.09;65.94
20696;BME280;10507;52.754;13.040;2023-02-28T10:31:00;100689.94;;;4.12;65.58
20696;BME280;10507;52.754;13.040;2023-02-28T10:33:30;100702.97;;;4.20;65.04
20696;BME280;10507;52.754;13.040;2023-02-28T10:35:58;100734.38;;;4.34;64.75
20696;BME280;10507;52.754;13.040;2023-02-28T10:38:28;100641.16;;;4.27;64.08
20696;BME280;10507;52.754;13.040;2023-02-28T10:41:05;100674.63;;;4.27;65.04
20696;BME280;10507;52.754;13.040;2023-02-28T10:43:34;100689.66;;;4.25;64.62
20696;BME280;10507;52.754;13.040;2023-02-28T10:46:04;100558.06;;;4.03;64.40
20696;BME280;10507;52.754;13.040;2023-02-28T10:48:39;100671.44;;;4.12;64.55
20696;BME280;10507;52.754;13.040;2023-02-28T10:51:10;100705.66;;;4.19;65.73
20696;BME280;10507;52.754;13.040;2023-02-28T10:53:45;100732.88;;;4.22;65.40
20696;BME280;10507;52.754;13.040;2023-02-28T10:56:27;100787.31;;;4.31;64.75
20696;BME280;10507;52.754;13.040;2023-02-28T10:58:59;100847.78;;;4.46;65.02
20696;BME280;10507;52.754;13.040;2023-02-28T11:01:36;100819.38;;;4.54;64.50
20696;BME280;10507;52.754;13.040;2023-02-28T11:04:17;100811.44;;;4.54;65.00
20696;BME280;10507;52.754;13.040;2023-02-28T11:06:45;100857.47;;;4.46;66.08
20696;BME280;10507;52.754;13.040;2023-02-28T11:09:22;100866.00;;;4.58;65.57
20696;BME280;10507;52.754;13.040;2023-02-28T11:11:51;100775.63;;;4.41;65.60
20696;BME280;10507;52.754;13.040;2023-02-28T11:14:22;100646.69;;;4.16;65.74
20696;BME280;10507;52.754;13.040;2023-02-28T11:16:52;100761.84;;;4.28;65.41
20696;BME280;10507;52.754;13.040;2023-02-28T11:19:22;100767.06;;;4.30;66.04
20696;BME280;10507;52.754;13.040;2023-02-28T11:21:54;100812.81;;;4.33;66.07
20696;BME280;10507;52.754;13.040;2023-02-28T11:24:25;100839.06;;;4.41;65.88
20696;BME280;10507;52.754;13.040;2023-02-28T11:26:55;100842.75;;;4.34;66.54
20696;BME280;10507;52.754;13.040;2023-02-28T11:29:26;100788.41;;;4.21;66.19
20696;BME280;10507;52.754;13.040;2023-02-28T11:32:05;100839.13;;;4.38;66.11
20696;BME280;10507;52.754;13.040;2023-02-28T11:34:36;100910.03;;;4.59;65.66
20696;BME280;10507;52.754;13.040;2023-02-28T11:37:09;100872.91;;;4.66;65.90
20696;BME280;10507;52.754;13.040;2023-02-28T11:39:38;100858.56;;;4.76;64.71
20696;BME280;10507;52.754;13.040;2023-02-28T11:42:30;100812.41;;;4.89;64.32
20696;BME280;10507;52.754;13.040;2023-02-28T11:45:15;100692.53;;;4.87;62.97
20696;BME280;10507;52.754;13.040;2023-02-28T11:47:49;100756.78;;;4.92;63.86
20696;BME280;10507;52.754;13.040;2023-02-28T11:50:38;100734.66;;;4.95;63.54
20696;BME280;10507;52.754;13.040;2023-02-28T11:53:19;100764.41;;;5.05;63.28
20696;BME280;10507;52.754;13.040;2023-02-28T11:55:54;100653.44;;;4.98;62.50
20696;BME280;10507;52.754;13.040;2023-02-28T11:58:33;100701.97;;;4.97;63.58
20696;BME280;10507;52.754;13.040;2023-02-28T12:01:24;100593.09;;;4.80;63.03
20696;BME280;10507;52.754;13.040;2023-02-28T12:04:04;100605.53;;;4.76;63.11
20696;BME280;10507;52.754;13.040;2023-02-28T12:06:44;100673.34;;;4.79;63.68
20696;BME280;10507;52.754;13.040;2023-02-28T12:09:26;100684.75;;;4.81;63.39
20696;BME280;10507;52.754;13.040;2023-02-28T12:12:04;100705.91;;;4.81;63.77
20696;BME280;10507;52.754;13.040;2023-02-28T12:14:50;100606.47;;;4.74;62.70
20696;BME280;10507;52.754;13.040;2023-02-28T12:17:29;100524.91;;;4.58;62.31
20696;BME280;10507;52.754;13.040;2023-02-28T12:20:08;100606.88;;;4.58;63.04
20696;BME280;10507;52.754;13.040;2023-02-28T12:22:47;100719.13;;;4.81;63.04
20696;BME280;10507;52.754;13.040;2023-02-28T12:25:47;100604.50;;;4.82;62.37
20696;BME280;10507;52.754;13.040;2023-02-28T12:28:21;100439.31;;;4.63;62.04
20696;BME280;10507;52.754;13.040;2023-02-28T12:30:55;100535.19;;;4.71;62.48
20696;BME280;10507;52.754;13.040;2023-02-28T12:33:30;100574.63;;;4.78;62.43
20696;BME280;10507;52.754;13.040;2023-02-28T12:36:03;100473.47;;;4.70;61.49
20696;BME280;10507;52.754;13.040;2023-02-28T12:38:36;100598.19;;;4.86;62.16
20696;BME280;10507;52.754;13.040;2023-02-28T12:41:11;100663.28;;;4.93;63.32
20696;BME280;10507;52.754;13.040;2023-02-28T12:43:43;100742.25;;;5.09;63.51
20696;BME280;10507;52.754;13.040;2023-02-28T12:46:14;100796.69;;;5.19;63.62
20696;BME280;10507;52.754;13.040;2023-02-28T12:48:49;100951.56;;;5.35;65.29
20696;BME280;10507;52.754;13.040;2023-02-28T12:51:19;100718.66;;;5.34;63.02
20696;BME280;10507;52.754;13.040;2023-02-28T12:53:54;100637.53;;;5.31;62.01
20696;BME280;10507;52.754;13.040;2023-02-28T12:56:33;100579.81;;;5.13;62.63
20696;BME280;10507;52.754;13.040;2023-02-28T12:59:07;100650.13;;;5.23;62.97
20696;BME280;10507;52.754;13.040;2023-02-28T13:05:14;100616.38;;;5.00;63.15
20696;BME280;10507;52.754;13.040;2023-02-28T13:08:08;100636.44;;;5.07;63.56
20696;BME280;10507;52.754;13.040;2023-02-28T13:10:42;100595.78;;;5.11;62.51